Time;durP1;ratioP1;P1;durP2;ratioP2;P2;SDS_P1;SDS_P2;PMS_P1;PMS_P2;Temp;Humidity;BMP_temperature;BMP_pressure;BME280_temperature;BME280_humidity;BME280_pressure;Samples;Min_cycle;Max_cycle;Signal;HPM_P1;HPM_P2
2021/08/17 00:00:14;;;;;;;3.13;2.58;;;;;;;-145.71;100.00;60690.53;4995044;28;20037;-82
2021/08/17 00:02:41;;;;;;;4.80;2.53;;;;;;;-145.71;100.00;60690.53;5014312;28;20843;-83
2021/08/17 00:05:07;;;;;;;4.43;2.60;;;;;;;-145.71;100.00;60690.53;5000965;28;20052;-83
2021/08/17 00:07:35;;;;;;;4.90;2.28;;;;;;;-145.71;100.00;60690.53;5015887;28;20080;-83
2021/08/17 00:10:03;;;;;;;4.55;2.53;;;;;;;-145.71;100.00;60690.53;5014864;28;20033;-83
2021/08/17 00:12:29;;;;;;;6.30;2.38;;;;;;;-145.71;100.00;60690.53;5014820;28;20030;-83
2021/08/17 00:14:54;;;;;;;2.47;2.28;;;;;;;-145.71;100.00;60690.53;4995687;28;20047;-83
2021/08/17 00:17:19;;;;;;;2.78;2.50;;;;;;;-145.71;100.00;60690.53;5013243;28;20501;-83
2021/08/17 00:19:46;;;;;;;3.10;2.30;;;;;;;-145.71;100.00;60690.53;5013143;28;20114;-82
2021/08/17 00:22:13;;;;;;;3.65;2.10;;;;;;;-145.71;100.00;60690.53;4994862;28;20029;-82
2021/08/17 00:24:39;;;;;;;6.38;2.20;;;;;;;-145.71;100.00;60690.53;5012351;28;20042;-82
2021/08/17 00:27:05;;;;;;;6.78;2.17;;;;;;;-145.71;100.00;60690.53;4996725;28;20025;-83
2021/08/17 00:29:30;;;;;;;4.07;2.20;;;;;;;-145.71;100.00;60690.53;5012344;28;20049;-82
2021/08/17 00:31:56;;;;;;;3.42;1.75;;;;;;;-145.71;100.00;60690.53;4998451;28;20126;-83
2021/08/17 00:34:22;;;;;;;2.28;1.90;;;;;;;-145.71;100.00;60690.53;5015798;28;20030;-83
2021/08/17 00:36:51;;;;;;;4.65;2.20;;;;;;;-145.71;100.00;60690.53;5014582;28;20458;-82
2021/08/17 00:39:17;;;;;;;4.63;1.80;;;;;;;-145.71;100.00;60690.53;5013776;28;20065;-83
2021/08/17 00:41:42;;;;;;;3.00;1.95;;;;;;;-145.71;100.00;60690.53;4995800;28;20504;-82
2021/08/17 00:44:24;;;;;;;3.83;2.17;;;;;;;-145.71;100.00;60690.53;5012991;28;20061;-82
2021/08/17 00:46:50;;;;;;;3.25;2.15;;;;;;;-145.71;100.00;60690.53;5012685;28;20049;-83
2021/08/17 00:49:18;;;;;;;1.83;1.60;;;;;;;-145.71;100.00;60690.53;4996209;28;20025;-83
2021/08/17 00:51:43;;;;;;;3.65;1.73;;;;;;;-145.71;100.00;60690.53;5011499;28;20037;-82
2021/08/17 00:54:08;;;;;;;3.75;2.10;;;;;;;-145.71;100.00;60690.53;4993953;28;20051;-82
2021/08/17 00:56:35;;;;;;;4.18;2.58;;;;;;;-145.71;100.00;60690.53;5011693;28;20037;-82
2021/08/17 00:59:01;;;;;;;3.85;2.25;;;;;;;-145.71;100.00;60690.53;5015753;28;20032;-83
2021/08/17 01:01:26;;;;;;;3.13;2.00;;;;;;;-145.71;100.00;60690.53;4998559;28;20850;-83
2021/08/17 01:03:51;;;;;;;3.08;2.20;;;;;;;-145.71;100.00;60690.53;5015406;28;20505;-83
2021/08/17 01:06:17;;;;;;;4.90;2.42;;;;;;;-145.71;100.00;60690.53;5014123;28;20032;-83
2021/08/17 01:08:42;;;;;;;3.80;2.40;;;;;;;-145.71;100.00;60690.53;5013296;28;20116;-83
2021/08/17 01:11:07;;;;;;;7.93;2.28;;;;;;;-145.71;100.00;60690.53;5012238;28;20061;-83
2021/08/17 01:13:33;;;;;;;9.40;3.03;;;;;;;-145.71;100.00;60690.53;5011577;28;20080;-83
2021/08/17 01:15:58;;;;;;;6.88;3.28;;;;;;;-145.71;100.00;60690.53;5011559;28;20140;-82
2021/08/17 01:18:24;;;;;;;4.82;2.53;;;;;;;-145.71;100.00;60690.53;5011332;28;20025;-82
2021/08/17 01:20:53;;;;;;;3.85;2.30;;;;;;;-145.71;100.00;60690.53;5011121;28;20104;-82
2021/08/17 01:23:21;;;;;;;2.78;2.33;;;;;;;-145.71;100.00;60690.53;5012772;28;20029;-83
2021/08/17 01:25:47;;;;;;;5.30;2.70;;;;;;;-145.71;100.00;60690.53;4998891;28;20482;-83
2021/08/17 01:28:12;;;;;;;3.65;2.58;;;;;;;-145.71;100.00;60690.53;4997782;28;20037;-83
2021/08/17 01:30:37;;;;;;;8.32;2.53;;;;;;;-145.71;100.00;60690.53;4996369;28;20084;-82
2021/08/17 01:33:03;;;;;;;6.00;3.38;;;;;;;-145.71;100.00;60690.53;4995327;28;20549;-83
2021/08/17 01:35:30;;;;;;;8.57;3.15;;;;;;;-145.71;100.00;60690.53;5012775;28;20038;-83
2021/08/17 01:37:55;;;;;;;8.18;3.20;;;;;;;-145.71;100.00;60690.53;4993861;28;20419;-82
2021/08/17 01:40:20;;;;;;;5.82;2.83;;;;;;;-145.71;100.00;60690.53;4993202;28;20111;-82
2021/08/17 01:42:48;;;;;;;9.07;3.13;;;;;;;-145.71;100.00;60690.53;5010871;28;20021;-82
2021/08/17 01:45:15;;;;;;;9.82;3.58;;;;;;;-145.71;100.00;60690.53;4993128;28;20032;-82
2021/08/17 01:47:41;;;;;;;10.25;3.10;;;;;;;-145.71;100.00;60690.53;4993299;28;20025;-82
2021/08/17 01:50:08;;;;;;;7.72;3.30;;;;;;;-145.71;100.00;60690.53;5011000;28;20029;-82
2021/08/17 01:52:34;;;;;;;7.22;2.83;;;;;;;-145.71;100.00;60690.53;5015047;28;20485;-83
2021/08/17 01:55:00;;;;;;;8.00;3.05;;;;;;;-145.71;100.00;60690.53;5015348;28;20121;-83
2021/08/17 01:57:25;;;;;;;11.57;3.05;;;;;;;-145.71;100.00;60690.53;5014485;28;20745;-83
2021/08/17 01:59:51;;;;;;;14.27;3.80;;;;;;;-145.71;100.00;60690.53;5013644;28;20033;-82
2021/08/17 02:02:16;;;;;;;6.00;2.78;;;;;;;-145.71;100.00;60690.53;5010825;28;20129;-82
2021/08/17 02:04:42;;;;;;;11.88;3.38;;;;;;;-145.71;100.00;60690.53;5010627;28;20034;-82
2021/08/17 02:07:07;;;;;;;7.18;3.00;;;;;;;-145.71;100.00;60690.53;5010444;28;20033;-82
2021/08/17 02:09:32;;;;;;;6.00;3.10;;;;;;;-145.71;100.00;60690.53;4992655;28;20026;-82
2021/08/17 02:11:58;;;;;;;9.98;3.97;;;;;;;-145.71;100.00;60690.53;4992886;28;20034;-82
2021/08/17 02:14:23;;;;;;;9.70;2.78;;;;;;;-145.71;100.00;60690.53;5010548;28;20117;-82
2021/08/17 02:16:48;;;;;;;11.38;3.03;;;;;;;-145.71;100.00;60690.53;4993083;28;20029;-82
2021/08/17 02:19:16;;;;;;;11.30;3.50;;;;;;;-145.71;100.00;60690.53;5015979;28;20037;-83
2021/08/17 02:21:41;;;;;;;8.40;2.80;;;;;;;-145.71;100.00;60690.53;4996577;28;20032;-83
2021/08/17 02:24:07;;;;;;;7.25;2.85;;;;;;;-145.71;100.00;60690.53;4996380;28;20050;-82
2021/08/17 02:26:32;;;;;;;15.05;3.22;;;;;;;-145.71;100.00;60690.53;5010431;28;20036;-83
2021/08/17 02:28:57;;;;;;;9.38;3.47;;;;;;;-145.71;100.00;60690.53;4992631;28;20033;-82
2021/08/17 02:31:22;;;;;;;14.88;3.97;;;;;;;-145.71;100.00;60690.53;5010187;28;20382;-82
2021/08/17 02:33:48;;;;;;;14.93;3.33;;;;;;;-145.71;100.00;60690.53;5010513;28;20577;-82
2021/08/17 02:36:13;;;;;;;10.55;3.20;;;;;;;-145.71;100.00;60690.53;5010319;28;20036;-83
2021/08/17 02:38:38;;;;;;;8.40;3.20;;;;;;;-145.71;100.00;60690.53;4995064;28;20030;-82
2021/08/17 02:41:04;;;;;;;8.25;2.60;;;;;;;-145.71;100.00;60690.53;4996192;28;20025;-82
2021/08/17 02:43:29;;;;;;;11.25;3.63;;;;;;;-145.71;100.00;60690.53;5019190;28;20030;-83
2021/08/17 02:45:56;;;;;;;10.88;3.20;;;;;;;-145.71;100.00;60690.53;5017735;28;20041;-83
2021/08/17 02:48:22;;;;;;;14.75;3.30;;;;;;;-145.71;100.00;60690.53;5014202;28;20370;-82
2021/08/17 02:50:47;;;;;;;8.65;2.85;;;;;;;-145.71;100.00;60690.53;4996184;28;20034;-82
2021/08/17 02:53:14;;;;;;;9.52;3.72;;;;;;;-145.71;100.00;60690.53;5014049;28;20088;-82
2021/08/17 02:55:40;;;;;;;9.73;3.55;;;;;;;-145.71;100.00;60690.53;5013995;28;20040;-82
2021/08/17 02:58:07;;;;;;;12.63;2.83;;;;;;;-145.71;100.00;60690.53;4995940;28;20456;-82
2021/08/17 03:00:33;;;;;;;17.35;2.88;;;;;;;-145.71;100.00;60690.53;5013691;28;20482;-82
2021/08/17 03:02:59;;;;;;;8.15;2.47;;;;;;;-145.71;100.00;60690.53;4996093;28;20024;-83
2021/08/17 03:05:24;;;;;;;15.48;3.60;;;;;;;-145.71;100.00;60690.53;4995836;28;20124;-82
2021/08/17 03:07:55;;;;;;;9.45;2.67;;;;;;;-145.71;100.00;60690.53;5013611;28;20038;-82
2021/08/17 03:10:22;;;;;;;9.95;2.58;;;;;;;-145.71;100.00;60690.53;5001675;28;20834;-83
2021/08/17 03:12:48;;;;;;;10.02;2.60;;;;;;;-145.71;100.00;60690.53;5015067;28;20072;-83
2021/08/17 03:15:13;;;;;;;11.63;2.65;;;;;;;-145.71;100.00;60690.53;5016740;28;20428;-83
2021/08/17 03:17:39;;;;;;;7.43;2.30;;;;;;;-145.71;100.00;60690.53;5016512;28;20088;-83
2021/08/17 03:20:07;;;;;;;5.75;1.92;;;;;;;-145.71;100.00;60690.53;5016125;28;20029;-83
2021/08/17 03:22:32;;;;;;;14.30;3.08;;;;;;;-145.71;100.00;60690.53;4996858;28;20018;-83
2021/08/17 03:24:57;;;;;;;7.00;2.40;;;;;;;-145.71;100.00;60690.53;5014785;28;20050;-82
2021/08/17 03:27:22;;;;;;;8.90;2.50;;;;;;;-145.71;100.00;60690.53;5013802;28;20033;-82
2021/08/17 03:29:48;;;;;;;8.43;2.53;;;;;;;-145.71;100.00;60690.53;5014072;28;20030;-83
2021/08/17 03:32:13;;;;;;;9.07;2.20;;;;;;;-145.71;100.00;60690.53;5013646;28;20029;-81
2021/08/17 03:34:39;;;;;;;12.32;3.63;;;;;;;-145.71;100.00;60690.53;5013529;28;20026;-82
2021/08/17 03:37:04;;;;;;;9.30;2.33;;;;;;;-145.71;100.00;60690.53;4995554;28;20037;-83
2021/08/17 03:39:29;;;;;;;7.13;2.00;;;;;;;-145.71;100.00;60690.53;5013150;28;20516;-82
2021/08/17 03:41:54;;;;;;;10.55;2.13;;;;;;;-145.71;100.00;60690.53;4995270;28;20029;-82
2021/08/17 03:44:20;;;;;;;13.90;3.00;;;;;;;-145.71;100.00;60690.53;5017821;28;20036;-83
2021/08/17 03:46:45;;;;;;;14.65;3.67;;;;;;;-145.71;100.00;60690.53;4999892;28;20036;-83
2021/08/17 03:49:10;;;;;;;12.85;2.53;;;;;;;-145.71;100.00;60690.53;4995689;28;20026;-83
2021/08/17 03:51:36;;;;;;;19.88;3.33;;;;;;;-145.71;100.00;60690.53;5012566;28;20478;-83
2021/08/17 03:54:01;;;;;;;12.10;3.25;;;;;;;-145.71;100.00;60690.53;4994046;28;20025;-83
2021/08/17 03:56:26;;;;;;;9.88;2.55;;;;;;;-145.71;100.00;60690.53;5009905;28;20021;-83
2021/08/17 03:58:52;;;;;;;15.40;3.08;;;;;;;-145.71;100.00;60690.53;5007724;28;20030;-82
2021/08/17 04:01:17;;;;;;;17.42;4.22;;;;;;;-145.71;100.00;60690.53;5009563;28;20026;-82
2021/08/17 04:03:43;;;;;;;18.25;3.70;;;;;;;-145.71;100.00;60690.53;5013287;28;20025;-83
2021/08/17 04:06:08;;;;;;;16.02;3.72;;;;;;;-145.71;100.00;60690.53;5023269;28;20037;-83
2021/08/17 04:08:36;;;;;;;17.40;3.35;;;;;;;-145.71;100.00;60690.53;5011917;28;20052;-83
2021/08/17 04:11:01;;;;;;;26.33;4.75;;;;;;;-145.71;100.00;60690.53;5023017;28;20104;-83
2021/08/17 04:13:27;;;;;;;24.05;3.85;;;;;;;-145.71;100.00;60690.53;5013133;28;20438;-83
2021/08/17 04:15:52;;;;;;;20.88;4.32;;;;;;;-145.71;100.00;60690.53;4995035;28;20021;-82
2021/08/17 04:18:17;;;;;;;15.05;3.90;;;;;;;-145.71;100.00;60690.53;5022121;28;20386;-83
2021/08/17 04:20:43;;;;;;;23.95;4.32;;;;;;;-145.71;100.00;60690.53;5019315;28;20021;-83
2021/08/17 04:23:08;;;;;;;21.98;4.43;;;;;;;-145.71;100.00;60690.53;4997299;28;20029;-83
2021/08/17 04:25:33;;;;;;;20.70;4.22;;;;;;;-145.71;100.00;60690.53;5028730;28;20464;-83
2021/08/17 04:27:59;;;;;;;21.02;4.03;;;;;;;-145.71;100.00;60690.53;5017554;28;20477;-83
2021/08/17 04:30:24;;;;;;;21.35;3.53;;;;;;;-145.71;100.00;60690.53;5004837;28;20422;-83
2021/08/17 04:32:49;;;;;;;27.30;6.28;;;;;;;-145.71;100.00;60690.53;5003793;28;20163;-83
2021/08/17 04:35:19;;;;;;;28.25;4.68;;;;;;;-145.71;100.00;60690.53;5014201;28;20037;-83
2021/08/17 04:37:44;;;;;;;27.52;5.45;;;;;;;-145.71;100.00;60690.53;5011669;28;20026;-83
2021/08/17 04:40:10;;;;;;;29.10;5.38;;;;;;;-145.71;100.00;60690.53;5021957;28;20123;-82
2021/08/17 04:42:35;;;;;;;28.40;4.78;;;;;;;-145.71;100.00;60690.53;5017821;28;20473;-82
2021/08/17 04:45:01;;;;;;;29.52;5.65;;;;;;;-145.71;100.00;60690.53;4999636;28;20040;-83
2021/08/17 04:47:26;;;;;;;30.17;5.57;;;;;;;-145.71;100.00;60690.53;5010875;28;20040;-83
2021/08/17 04:49:51;;;;;;;17.70;5.70;;;;;;;-145.71;100.00;60690.53;5011539;28;20022;-83
2021/08/17 04:52:17;;;;;;;30.40;5.40;;;;;;;-145.71;100.00;60690.53;4999257;28;20415;-83
2021/08/17 04:54:43;;;;;;;26.42;4.60;;;;;;;-145.71;100.00;60690.53;5018649;28;20029;-83
2021/08/17 04:57:08;;;;;;;28.45;6.40;;;;;;;-145.71;100.00;60690.53;5004731;28;20512;-83
2021/08/17 04:59:34;;;;;;;24.73;5.45;;;;;;;-145.71;100.00;60690.53;4993546;28;20088;-83
2021/08/17 05:01:59;;;;;;;28.58;5.82;;;;;;;-145.71;100.00;60690.53;5004203;28;20459;-83
2021/08/17 05:04:24;;;;;;;27.75;5.60;;;;;;;-145.71;100.00;60690.53;5016512;28;20083;-82
2021/08/17 05:06:51;;;;;;;27.55;7.07;;;;;;;-145.71;100.00;60690.53;4998050;28;20141;-83
2021/08/17 05:09:16;;;;;;;28.10;5.30;;;;;;;-145.71;100.00;60690.53;5028348;28;20428;-83
2021/08/17 05:11:42;;;;;;;23.77;4.80;;;;;;;-145.71;100.00;60690.53;4996454;28;20029;-83
2021/08/17 05:14:07;;;;;;;32.45;5.72;;;;;;;-145.71;100.00;60690.53;5022832;28;20097;-83
2021/08/17 05:16:34;;;;;;;28.75;5.93;;;;;;;-145.71;100.00;60690.53;4999491;28;20440;-83
2021/08/17 05:18:59;;;;;;;28.90;5.45;;;;;;;-145.71;100.00;60690.53;5014370;28;20030;-83
2021/08/17 05:21:24;;;;;;;28.88;5.53;;;;;;;-145.71;100.00;60690.53;5024501;28;20026;-83
2021/08/17 05:23:50;;;;;;;26.25;5.22;;;;;;;-145.71;100.00;60690.53;5010994;28;20060;-83
2021/08/17 05:26:16;;;;;;;33.22;5.78;;;;;;;-145.71;100.00;60690.53;5026765;28;20033;-83
2021/08/17 05:28:41;;;;;;;27.42;5.55;;;;;;;-145.71;100.00;60690.53;5011652;28;20113;-83
2021/08/17 05:31:06;;;;;;;26.20;5.72;;;;;;;-145.71;100.00;60690.53;5011966;28;20435;-83
2021/08/17 05:33:31;;;;;;;26.45;6.45;;;;;;;-145.71;100.00;60690.53;5026475;28;20033;-83
2021/08/17 05:35:57;;;;;;;25.75;5.05;;;;;;;-145.71;100.00;60690.53;5012503;28;20056;-82
2021/08/17 05:38:22;;;;;;;24.92;5.07;;;;;;;-145.71;100.00;60690.53;5001228;28;20030;-83
2021/08/17 05:40:48;;;;;;;34.60;5.85;;;;;;;-145.71;100.00;60690.53;5018393;28;20096;-82
2021/08/17 05:43:13;;;;;;;28.25;6.00;;;;;;;-145.71;100.00;60690.53;5012361;28;20030;-82
2021/08/17 05:45:38;;;;;;;25.92;5.40;;;;;;;-145.71;100.00;60690.53;5023252;28;20026;-82
2021/08/17 05:48:04;;;;;;;22.02;5.43;;;;;;;-145.71;100.00;60690.53;4994671;28;20031;-83
2021/08/17 05:50:29;;;;;;;17.55;5.47;;;;;;;-145.71;100.00;60690.53;5035755;28;20061;-83
2021/08/17 05:52:54;;;;;;;29.58;5.35;;;;;;;-145.71;100.00;60690.53;5017519;28;20033;-82
2021/08/17 05:55:20;;;;;;;23.50;5.13;;;;;;;-145.71;100.00;60690.53;5012118;28;20045;-83
2021/08/17 05:57:59;;;;;;;23.35;5.88;;;;;;;-145.71;100.00;60690.53;5029767;28;20032;-83
2021/08/17 06:00:26;;;;;;;25.85;5.03;;;;;;;-145.71;100.00;60690.53;5030320;28;20109;-83
2021/08/17 06:02:51;;;;;;;26.15;4.68;;;;;;;-145.71;100.00;60690.53;5029894;28;20029;-82
2021/08/17 06:05:17;;;;;;;21.95;5.05;;;;;;;-145.71;100.00;60690.53;5030206;28;20394;-83
2021/08/17 06:07:50;;;;;;;24.80;5.13;;;;;;;-145.71;100.00;60690.53;5029741;28;20033;-83
2021/08/17 06:10:16;;;;;;;23.58;6.30;;;;;;;-145.71;100.00;60690.53;5011867;28;20029;-83
2021/08/17 06:12:43;;;;;;;25.65;5.55;;;;;;;-145.71;100.00;60690.53;5032447;28;20048;-83
2021/08/17 06:15:09;;;;;;;29.33;5.32;;;;;;;-145.71;100.00;60690.53;5033593;28;20029;-83
2021/08/17 06:17:34;;;;;;;25.25;4.93;;;;;;;-145.71;100.00;60690.53;5032917;28;20481;-83
2021/08/17 06:19:59;;;;;;;30.70;5.72;;;;;;;-145.71;100.00;60690.53;5031966;28;20032;-83
2021/08/17 06:22:25;;;;;;;33.25;5.75;;;;;;;-145.71;100.00;60690.53;5031249;28;20112;-83
2021/08/17 06:24:50;;;;;;;34.55;6.93;;;;;;;-145.71;100.00;60690.53;5030815;28;20096;-83
2021/08/17 06:27:16;;;;;;;26.08;5.10;;;;;;;-145.71;100.00;60690.53;5031037;28;20454;-83
2021/08/17 06:29:43;;;;;;;23.08;5.18;;;;;;;-145.71;100.00;60690.53;5030180;28;20037;-83
2021/08/17 06:32:09;;;;;;;27.50;5.47;;;;;;;-145.71;100.00;60690.53;5012523;28;20072;-83
2021/08/17 06:34:34;;;;;;;32.60;6.10;;;;;;;-145.71;100.00;60690.53;5030967;28;20030;-83
2021/08/17 06:36:59;;;;;;;26.70;6.43;;;;;;;-145.71;100.00;60690.53;5016698;28;20030;-83
2021/08/17 06:39:25;;;;;;;25.98;5.95;;;;;;;-145.71;100.00;60690.53;5034107;28;20026;-83
2021/08/17 06:41:50;;;;;;;27.15;5.65;;;;;;;-145.71;100.00;60690.53;5032732;28;20022;-83
2021/08/17 06:44:15;;;;;;;30.48;5.13;;;;;;;-145.71;100.00;60690.53;5013449;28;20030;-83
2021/08/17 06:46:40;;;;;;;29.65;6.32;;;;;;;-145.71;100.00;60690.53;5030541;28;20116;-83
2021/08/17 06:49:06;;;;;;;25.98;5.45;;;;;;;-145.71;100.00;60690.53;5030071;28;20036;-83
2021/08/17 06:51:31;;;;;;;24.70;5.60;;;;;;;-145.71;100.00;60690.53;5031456;28;20021;-83
2021/08/17 06:53:56;;;;;;;24.58;5.53;;;;;;;-145.71;100.00;60690.53;5011458;28;20091;-82
2021/08/17 06:56:22;;;;;;;28.63;5.60;;;;;;;-145.71;100.00;60690.53;5030114;28;20112;-82
2021/08/17 06:58:47;;;;;;;22.90;5.47;;;;;;;-145.71;100.00;60690.53;5015715;28;20469;-83
2021/08/17 07:01:13;;;;;;;23.20;5.80;;;;;;;-145.71;100.00;60690.53;5017225;28;20037;-83
2021/08/17 07:03:38;;;;;;;27.92;5.82;;;;;;;-145.71;100.00;60690.53;5032487;28;20029;-82
2021/08/17 07:06:04;;;;;;;30.05;6.13;;;;;;;-145.71;100.00;60690.53;5031191;28;20025;-83
2021/08/17 07:08:29;;;;;;;24.40;5.07;;;;;;;-145.71;100.00;60690.53;5030544;28;20029;-83
2021/08/17 07:10:54;;;;;;;28.30;5.82;;;;;;;-145.71;100.00;60690.53;5029899;28;20021;-83
2021/08/17 07:13:20;;;;;;;25.50;6.20;;;;;;;-145.71;100.00;60690.53;5030163;28;20029;-83
2021/08/17 07:15:46;;;;;;;32.55;6.55;;;;;;;-145.71;100.00;60690.53;5030800;28;20381;-83
2021/08/17 07:18:12;;;;;;;21.63;4.93;;;;;;;-145.71;100.00;60690.53;5015514;28;20029;-83
2021/08/17 07:20:37;;;;;;;22.42;5.50;;;;;;;-145.71;100.00;60690.53;5034031;28;20120;-83
2021/08/17 07:23:03;;;;;;;31.60;5.88;;;;;;;-145.71;100.00;60690.53;5032102;28;20036;-83
2021/08/17 07:25:29;;;;;;;18.08;4.63;;;;;;;-145.71;100.00;60690.53;5016831;28;20057;-83
2021/08/17 07:27:54;;;;;;;22.95;5.57;;;;;;;-145.71;100.00;60690.53;5034558;28;20420;-83
2021/08/17 07:30:20;;;;;;;23.30;5.50;;;;;;;-145.71;100.00;60690.53;5034470;28;20025;-83
2021/08/17 07:32:46;;;;;;;23.33;6.00;;;;;;;-145.71;100.00;60690.53;5033557;28;20044;-83
2021/08/17 07:35:15;;;;;;;28.10;5.95;;;;;;;-145.71;100.00;60690.53;5014990;28;20029;-83
2021/08/17 07:37:42;;;;;;;21.98;5.13;;;;;;;-145.71;100.00;60690.53;5014462;28;20022;-83
2021/08/17 07:40:09;;;;;;;20.88;4.28;;;;;;;-145.71;100.00;60690.53;5033141;28;20029;-83
2021/08/17 07:42:34;;;;;;;19.38;4.82;;;;;;;-145.71;100.00;60690.53;5033186;28;20033;-83
2021/08/17 07:45:00;;;;;;;24.52;4.60;;;;;;;-145.71;100.00;60690.53;5014586;28;20029;-83
2021/08/17 07:47:25;;;;;;;18.08;4.57;;;;;;;-145.71;100.00;60690.53;5017704;28;20090;-83
2021/08/17 07:49:51;;;;;;;17.02;4.35;;;;;;;-145.71;100.00;60690.53;5019006;28;20025;-83
2021/08/17 07:52:16;;;;;;;18.40;4.43;;;;;;;-145.71;100.00;60690.53;5035868;28;20053;-83
2021/08/17 07:54:42;;;;;;;21.50;4.93;;;;;;;-145.71;100.00;60690.53;5034604;28;20030;-83
2021/08/17 07:57:07;;;;;;;17.08;4.60;;;;;;;-145.71;100.00;60690.53;5015152;28;20090;-83
2021/08/17 07:59:33;;;;;;;19.83;4.88;;;;;;;-145.71;100.00;60690.53;5014901;28;20025;-83
2021/08/17 08:01:58;;;;;;;20.58;4.63;;;;;;;-145.71;100.00;60690.53;5014927;28;20029;-83
2021/08/17 08:04:24;;;;;;;20.38;4.43;;;;;;;-145.71;100.00;60690.53;5032291;28;20029;-83
2021/08/17 08:06:49;;;;;;;22.00;4.45;;;;;;;-145.71;100.00;60690.53;5031643;28;20072;-83
2021/08/17 08:09:15;;;;;;;16.25;4.53;;;;;;;-145.71;100.00;60690.53;5036224;28;20033;-83
2021/08/17 08:11:40;;;;;;;18.33;4.22;;;;;;;-145.71;100.00;60690.53;5037034;28;20108;-83
2021/08/17 08:14:05;;;;;;;22.20;4.43;;;;;;;-145.71;100.00;60690.53;5017138;28;20029;-83
2021/08/17 08:16:31;;;;;;;24.20;5.15;;;;;;;-145.71;100.00;60690.53;5034255;28;20029;-83
2021/08/17 08:18:56;;;;;;;19.77;4.70;;;;;;;-145.71;100.00;60690.53;5033543;28;20473;-83
2021/08/17 08:21:22;;;;;;;23.63;6.25;;;;;;;-145.71;100.00;60690.53;5032562;28;20524;-83
2021/08/17 08:23:47;;;;;;;24.27;4.90;;;;;;;-145.71;100.00;60690.53;5032525;28;20565;-83
2021/08/17 08:26:12;;;;;;;23.23;4.28;;;;;;;-145.71;100.00;60690.53;5013785;28;20481;-83
2021/08/17 08:28:38;;;;;;;18.58;3.75;;;;;;;-145.71;100.00;60690.53;5021194;28;20033;-83
2021/08/17 08:31:03;;;;;;;19.27;4.47;;;;;;;-145.71;100.00;60690.53;5017441;28;20385;-83
2021/08/17 08:33:29;;;;;;;18.92;3.90;;;;;;;-145.71;100.00;60690.53;5034771;28;20048;-83
2021/08/17 08:35:54;;;;;;;19.98;4.05;;;;;;;-145.71;100.00;60690.53;5014335;28;20389;-83
2021/08/17 08:38:20;;;;;;;17.77;4.68;;;;;;;-145.71;100.00;60690.53;5032925;28;20033;-83
2021/08/17 08:40:49;;;;;;;13.77;3.65;;;;;;;-145.71;100.00;60690.53;5013835;28;20040;-83
2021/08/17 08:43:18;;;;;;;15.55;3.97;;;;;;;-145.71;100.00;60690.53;5032331;28;20026;-83
2021/08/17 08:45:44;;;;;;;21.63;4.18;;;;;;;-145.71;100.00;60690.53;5013530;28;20102;-83
2021/08/17 08:48:12;;;;;;;13.05;3.70;;;;;;;-145.71;100.00;60690.53;5031378;28;20029;-83
2021/08/17 08:50:40;;;;;;;20.05;3.95;;;;;;;-145.71;100.00;60690.53;5036472;28;20036;-83
2021/08/17 08:53:06;;;;;;;20.10;4.53;;;;;;;-145.71;100.00;60690.53;5017907;28;20036;-83
2021/08/17 08:55:31;;;;;;;22.73;4.38;;;;;;;-145.71;100.00;60690.53;5016953;28;20469;-83
2021/08/17 08:57:57;;;;;;;15.30;4.40;;;;;;;-145.71;100.00;60690.53;5016224;28;20107;-83
2021/08/17 09:00:22;;;;;;;25.42;5.90;;;;;;;-145.71;100.00;60690.53;5033237;28;20033;-83
2021/08/17 09:02:51;;;;;;;20.88;4.28;;;;;;;-145.71;100.00;60690.53;5032055;28;20030;-83
2021/08/17 09:05:18;;;;;;;22.73;4.57;;;;;;;-145.71;100.00;60690.53;5014023;28;20453;-83
2021/08/17 09:07:48;;;;;;;17.02;5.05;;;;;;;-145.71;100.00;60690.53;5032131;28;20108;-83
2021/08/17 09:10:14;;;;;;;24.25;4.75;;;;;;;-145.71;100.00;60690.53;5013342;28;20030;-83
2021/08/17 09:12:48;;;;;;;17.50;4.60;;;;;;;-145.71;100.00;60690.53;5012946;28;20211;-83
2021/08/17 09:15:17;;;;;;;24.13;4.93;;;;;;;-145.71;100.00;60690.53;5030268;28;20029;-83
2021/08/17 09:17:43;;;;;;;13.27;4.80;;;;;;;-145.71;100.00;60690.53;5033272;28;20389;-83
2021/08/17 09:20:14;;;;;;;17.17;3.90;;;;;;;-145.71;100.00;60690.53;5035989;28;20036;-83
2021/08/17 09:22:41;;;;;;;17.88;4.15;;;;;;;-145.71;100.00;60690.53;5015875;28;20040;-83
2021/08/17 09:25:07;;;;;;;15.68;3.85;;;;;;;-145.71;100.00;60690.53;5032889;28;20053;-83
2021/08/17 09:27:35;;;;;;;14.38;4.00;;;;;;;-145.71;100.00;60690.53;5014618;28;20477;-83
2021/08/17 09:30:03;;;;;;;19.25;4.15;;;;;;;-145.71;100.00;60690.53;5032470;28;20393;-83
2021/08/17 09:32:29;;;;;;;16.90;4.63;;;;;;;-145.71;100.00;60690.53;5012262;28;20036;-83
2021/08/17 09:34:57;;;;;;;19.35;3.53;;;;;;;-145.71;100.00;60690.53;5030328;28;20021;-83
2021/08/17 09:37:28;;;;;;;23.80;4.22;;;;;;;-145.71;100.00;60690.53;5030633;28;20108;-83
2021/08/17 09:39:55;;;;;;;25.20;4.20;;;;;;;-145.71;100.00;60690.53;5030614;28;20036;-83
2021/08/17 09:42:25;;;;;;;16.88;4.47;;;;;;;-145.71;100.00;60690.53;5016545;28;20477;-83
2021/08/17 09:45:07;;;;;;;15.75;4.18;;;;;;;-145.71;100.00;60690.53;5035318;28;20059;-83
2021/08/17 09:47:41;;;;;;;19.38;3.85;;;;;;;-145.71;100.00;60690.53;5014804;28;20040;-83
2021/08/17 09:50:22;;;;;;;17.75;4.60;;;;;;;-145.71;100.00;60690.53;5013553;28;20048;-83
2021/08/17 09:52:51;;;;;;;13.07;3.65;;;;;;;-145.71;100.00;60690.53;5012803;28;20030;-83
2021/08/17 09:55:21;;;;;;;15.57;4.03;;;;;;;-145.71;100.00;60690.53;5030130;28;20164;-83
2021/08/17 09:57:48;;;;;;;12.73;3.67;;;;;;;-145.71;100.00;60690.53;5029745;28;20421;-83
2021/08/17 10:00:15;;;;;;;18.20;3.85;;;;;;;-145.71;100.00;60690.53;5029886;28;20029;-83
2021/08/17 10:02:48;;;;;;;13.77;3.75;;;;;;;-145.71;100.00;60690.53;5030372;28;20505;-83
2021/08/17 10:05:15;;;;;;;20.23;4.82;;;;;;;-145.71;100.00;60690.53;5036055;28;20507;-83
2021/08/17 10:07:42;;;;;;;18.02;4.75;;;;;;;-145.71;100.00;60690.53;5034053;28;20405;-83
2021/08/17 10:10:09;;;;;;;15.63;3.75;;;;;;;-145.71;100.00;60690.53;5032072;28;20029;-83
2021/08/17 10:12:36;;;;;;;12.70;3.63;;;;;;;-145.71;100.00;60690.53;5012449;28;20029;-82
2021/08/17 10:15:05;;;;;;;12.30;3.70;;;;;;;-145.71;100.00;60690.53;5029901;28;20029;-82
2021/08/17 10:17:31;;;;;;;20.77;4.68;;;;;;;-145.71;100.00;60690.53;5030175;28;20036;-83
2021/08/17 10:19:56;;;;;;;19.05;5.13;;;;;;;-145.71;100.00;60690.53;5011963;28;20021;-83
2021/08/17 10:22:22;;;;;;;18.05;4.78;;;;;;;-145.71;100.00;60690.53;5029764;28;20052;-82
2021/08/17 10:24:48;;;;;;;17.02;3.85;;;;;;;-145.71;100.00;60690.53;5031336;28;20054;-83
2021/08/17 10:27:26;;;;;;;18.10;4.40;;;;;;;-145.71;100.00;60690.53;5034683;28;20029;-83
2021/08/17 10:29:57;;;;;;;16.13;4.05;;;;;;;-145.71;100.00;60690.53;5032389;28;20029;-83
2021/08/17 10:32:44;;;;;;;12.97;4.20;;;;;;;-145.71;100.00;60690.53;5029874;28;20025;-82
2021/08/17 10:35:47;;;;;;;11.63;3.70;;;;;;;-145.71;100.00;60690.53;5012344;28;20261;-83
2021/08/17 10:38:12;;;;;;;12.65;3.58;;;;;;;-145.71;100.00;60690.53;5014268;28;20041;-83
2021/08/17 10:40:53;;;;;;;15.75;3.35;;;;;;;-145.71;100.00;60690.53;5011940;28;20442;-83
2021/08/17 10:43:42;;;;;;;15.98;3.90;;;;;;;-145.71;100.00;60690.53;5011859;28;20033;-82
2021/08/17 10:46:09;;;;;;;21.73;3.83;;;;;;;-145.71;100.00;60690.53;5001237;28;20065;-82
2021/08/17 10:49:05;;;;;;;19.30;3.90;;;;;;;-145.71;100.00;60690.53;5029992;28;20032;-83
2021/08/17 10:51:29;;;;;;;16.42;3.28;;;;;;;-145.71;100.00;60690.53;5031144;28;20051;-83
2021/08/17 10:54:04;;;;;;;15.32;3.80;;;;;;;-145.71;100.00;60690.53;5030133;28;20475;-83
2021/08/17 10:56:34;;;;;;;13.85;4.15;;;;;;;-145.71;100.00;60690.53;5029518;28;20075;-83
2021/08/17 10:59:01;;;;;;;14.32;3.58;;;;;;;-145.71;100.00;60690.53;5031765;28;20036;-83
2021/08/17 11:01:32;;;;;;;15.88;4.45;;;;;;;-145.71;100.00;60690.53;5034311;28;20029;-83